Time;durP1;ratioP1;P1;durP2;ratioP2;P2;SDS_P1;SDS_P2;PMS_P1;PMS_P2;Temp;Humidity;BMP_temperature;BMP_pressure;BME280_temperature;BME280_humidity;BME280_pressure;Samples;Min_cycle;Max_cycle;Signal;HPM_P1;HPM_P2
2021/05/31 00:01:24;;;;;;;1.00;1.00;;;19.80;44.70;;;23.52;30.43;102347.91;5116100;28;20047;-63
2021/05/31 00:03:50;;;;;;;1.33;1.23;;;19.80;44.70;;;23.49;30.48;102349.78;5132573;28;20082;-62
2021/05/31 00:06:16;;;;;;;1.20;1.17;;;19.90;44.70;;;23.51;30.61;102354.22;5099142;28;20077;-63
2021/05/31 00:08:42;;;;;;;1.05;1.00;;;19.80;44.70;;;23.47;30.59;102348.13;5132595;28;20047;-63
2021/05/31 00:11:08;;;;;;;1.40;1.30;;;19.80;44.70;;;23.46;30.59;102344.59;5132864;28;20047;-63
2021/05/31 00:13:34;;;;;;;1.20;1.10;;;19.80;44.80;;;23.48;30.56;102353.41;5115197;28;20070;-63
2021/05/31 00:16:00;;;;;;;1.25;1.15;;;19.80;44.80;;;23.43;30.40;102339.41;5132710;28;20050;-63
2021/05/31 00:18:26;;;;;;;0.90;0.90;;;19.80;44.80;;;23.44;30.62;102340.28;5115005;28;20054;-63
2021/05/31 00:20:52;;;;;;;1.23;1.10;;;19.80;44.90;;;23.42;30.57;102337.69;5114886;28;20137;-63
2021/05/31 00:23:19;;;;;;;1.08;1.02;;;19.80;44.90;;;23.44;30.75;102341.16;5115092;28;20066;-63
2021/05/31 00:25:46;;;;;;;0.95;0.95;;;19.80;44.90;;;23.40;30.64;102334.22;5132347;27;20071;-63
2021/05/31 00:28:13;;;;;;;1.20;1.10;;;19.70;44.90;;;23.42;30.75;102342.16;5115446;28;20409;-63
2021/05/31 00:30:40;;;;;;;1.00;1.00;;;19.70;44.90;;;23.35;30.75;102338.91;5098163;28;20051;-63
2021/05/31 00:33:07;;;;;;;1.15;1.15;;;19.70;45.00;;;23.39;30.84;102348.53;5115033;28;20043;-63
2021/05/31 00:35:32;;;;;;;1.50;1.20;;;19.70;45.00;;;23.39;30.67;102337.84;5115049;28;20138;-63
2021/05/31 00:37:59;;;;;;;1.10;1.00;;;19.60;45.00;;;23.35;30.64;102338.91;5132467;28;20137;-63
2021/05/31 00:40:26;;;;;;;1.10;1.05;;;19.60;45.00;;;23.31;30.71;102319.53;5133579;27;20035;-63
2021/05/31 00:42:52;;;;;;;1.20;1.10;;;19.70;45.10;;;23.35;30.68;102335.41;5115541;28;20070;-64
2021/05/31 00:45:18;;;;;;;1.10;0.90;;;19.70;45.10;;;23.31;30.80;102332.88;5132464;28;20478;-62
2021/05/31 00:47:44;;;;;;;1.23;1.13;;;19.60;45.10;;;23.32;30.77;102331.06;5132151;28;20092;-63
2021/05/31 00:50:12;;;;;;;1.17;1.08;;;19.60;45.10;;;23.28;30.78;102330.34;5132099;28;20043;-62
2021/05/31 00:52:38;;;;;;;1.13;1.08;;;19.60;45.10;;;23.29;30.90;102336.56;5133893;27;20127;-63
2021/05/31 00:55:05;;;;;;;1.00;1.00;;;19.60;45.10;;;23.28;30.82;102329.50;5131774;28;20151;-63
2021/05/31 00:57:32;;;;;;;1.17;1.08;;;19.60;45.20;;;23.22;30.98;102324.44;5132379;28;20082;-63
2021/05/31 00:59:59;;;;;;;0.90;0.90;;;19.60;45.20;;;23.27;30.91;102336.63;5132195;28;20494;-63
2021/05/31 01:02:28;;;;;;;1.00;0.98;;;19.60;45.20;;;23.21;31.03;102320.91;5097741;28;20134;-63
2021/05/31 01:04:54;;;;;;;1.00;1.00;;;19.60;45.30;;;23.22;30.99;102325.31;5131822;28;20079;-63
2021/05/31 01:07:49;;;;;;;1.20;1.10;;;19.50;45.20;;;23.18;31.06;102328.22;5132010;28;20058;-63
2021/05/31 01:10:29;;;;;;;1.08;1.00;;;19.50;45.20;;;23.19;30.99;102328.13;5112781;28;20054;-63
2021/05/31 01:13:17;;;;;;;1.20;1.10;;;19.50;45.30;;;23.18;30.95;102330.88;5131626;28;20521;-63
2021/05/31 01:15:55;;;;;;;0.95;0.95;;;19.50;45.30;;;23.14;30.92;102327.50;5114517;28;20075;-63
2021/05/31 01:18:41;;;;;;;1.10;1.10;;;19.50;45.30;;;23.14;31.20;102338.16;5114383;28;20039;-63
2021/05/31 01:21:32;;;;;;;1.00;1.00;;;19.50;45.30;;;23.15;30.92;102337.22;5114395;28;20036;-63
2021/05/31 01:24:23;;;;;;;1.17;1.08;;;19.50;45.40;;;23.12;31.13;102337.34;5114597;28;20051;-63
2021/05/31 01:27:10;;;;;;;1.30;1.10;;;19.50;45.40;;;23.15;31.03;102331.03;5131626;28;20055;-63
2021/05/31 01:29:40;;;;;;;0.93;0.90;;;19.50;45.40;;;23.10;31.00;102323.22;5114506;27;20130;-63
2021/05/31 01:32:09;;;;;;;0.73;0.73;;;19.40;45.40;;;23.14;31.14;102324.84;5099609;28;20065;-63
2021/05/31 01:34:36;;;;;;;1.08;1.08;;;19.50;45.40;;;23.11;30.94;102322.31;5118003;28;20167;-63
2021/05/31 01:37:17;;;;;;;1.10;1.00;;;19.40;45.40;;;23.09;31.25;102326.84;5100934;28;20466;-63
2021/05/31 01:39:46;;;;;;;0.90;0.90;;;19.40;45.50;;;23.02;31.04;102317.38;5100636;28;20486;-63
2021/05/31 01:42:13;;;;;;;0.93;0.93;;;19.40;45.50;;;23.08;31.14;102327.78;5134661;28;20047;-63
2021/05/31 01:44:40;;;;;;;1.10;1.00;;;19.40;45.50;;;23.02;31.29;102322.69;5117492;28;20043;-63
2021/05/31 01:47:08;;;;;;;1.08;1.08;;;19.40;45.50;;;23.03;31.29;102321.78;5117584;28;20069;-63
2021/05/31 01:49:36;;;;;;;1.10;1.00;;;19.40;45.50;;;23.00;31.07;102317.44;5134581;28;20063;-63
2021/05/31 01:52:05;;;;;;;1.27;1.10;;;19.40;45.50;;;22.98;31.24;102316.66;5100590;28;20049;-63
2021/05/31 01:54:31;;;;;;;0.95;0.90;;;19.40;45.60;;;22.99;31.24;102315.72;5135083;28;20062;-63
2021/05/31 01:56:58;;;;;;;1.00;0.90;;;19.40;45.50;;;23.00;31.25;102324.56;5117657;28;20403;-64
2021/05/31 01:59:24;;;;;;;0.98;0.98;;;19.40;45.60;;;22.98;31.23;102321.97;5135923;27;20463;-63
2021/05/31 02:01:52;;;;;;;0.93;0.93;;;19.40;45.60;;;22.99;31.23;102325.50;5134786;28;20035;-64
2021/05/31 02:04:19;;;;;;;1.05;1.00;;;19.40;45.60;;;22.98;31.38;102321.97;5101547;28;20466;-63
2021/05/31 02:06:45;;;;;;;1.10;1.10;;;19.40;45.60;;;22.98;31.26;102321.97;5134524;28;20475;-63
2021/05/31 02:09:11;;;;;;;0.90;0.90;;;19.40;45.60;;;22.97;31.26;102325.59;5117694;28;20076;-63
2021/05/31 02:12:03;;;;;;;1.00;1.00;;;19.40;46.20;;;22.94;31.31;102321.28;5117119;28;20401;-64
2021/05/31 02:14:51;;;;;;;0.80;0.80;;;19.40;45.70;;;22.91;31.29;102309.88;5116958;28;20058;-64
2021/05/31 02:17:36;;;;;;;0.95;0.95;;;19.30;45.70;;;22.93;31.47;102318.66;5100204;28;20114;-64
2021/05/31 02:20:09;;;;;;;0.82;0.82;;;19.30;45.70;;;22.91;31.30;102313.41;5117305;28;20044;-64
2021/05/31 02:22:40;;;;;;;0.80;0.80;;;19.30;45.70;;;22.90;31.30;102317.03;5100224;28;20046;-64
2021/05/31 02:25:06;;;;;;;;;;;19.30;45.70;;;23.02;31.21;102312.03;5134964;28;20055;-64
2021/05/31 02:27:33;;;;;;;0.80;0.80;;;19.30;45.70;;;22.96;31.12;102320.34;5116954;28;19922;-63
2021/05/31 02:30:04;;;;;;;0.80;0.80;;;19.30;45.70;;;22.92;31.42;102328.47;5116943;28;20137;-63
2021/05/31 02:32:30;;;;;;;;;;;19.30;45.70;;;22.96;31.12;102305.19;5117305;28;20063;-64
2021/05/31 02:34:57;;;;;;;0.88;0.88;;;19.30;45.80;;;22.91;31.21;102309.88;5117044;28;19915;-64
2021/05/31 02:37:35;;;;;;;0.90;0.90;;;19.30;45.80;;;22.88;31.49;102320.69;5116833;28;20082;-64
2021/05/31 02:40:03;;;;;;;0.80;0.80;;;19.30;45.80;;;22.87;31.51;102322.50;5133952;28;20051;-64
2021/05/31 02:42:29;;;;;;;1.00;1.00;;;19.30;45.80;;;22.85;31.53;102319.03;5116336;28;20062;-63
2021/05/31 02:44:54;;;;;;;1.20;1.15;;;19.30;45.80;;;22.85;31.34;102318.16;5100157;28;20047;-63
2021/05/31 02:47:20;;;;;;;0.90;0.90;;;19.30;45.80;;;22.83;31.55;102318.22;5116871;28;20542;-63
2021/05/31 02:49:46;;;;;;;1.02;1.00;;;19.30;45.90;;;22.84;31.49;102327.13;5135430;27;20053;-63
2021/05/31 02:52:12;;;;;;;1.00;1.00;;;19.30;45.90;;;22.80;31.48;102318.38;5133423;28;20058;-64
2021/05/31 02:54:37;;;;;;;1.00;1.00;;;19.20;45.80;;;22.79;31.56;102313.09;5133588;28;20054;-63
2021/05/31 02:57:03;;;;;;;1.00;1.00;;;19.30;45.90;;;22.80;31.54;102322.84;5134840;27;20054;-63
2021/05/31 02:59:29;;;;;;;1.30;1.20;;;19.30;45.90;;;22.81;31.59;102320.13;5116231;28;20047;-63
2021/05/31 03:01:56;;;;;;;0.95;0.95;;;19.30;45.90;;;22.82;31.62;102318.31;5133530;28;20047;-64
2021/05/31 03:04:21;;;;;;;0.90;0.90;;;19.20;45.80;;;22.80;31.54;102313.03;5116437;28;20082;-64
2021/05/31 03:06:47;;;;;;;0.90;0.90;;;19.30;45.90;;;22.82;31.37;102316.53;5133768;28;20043;-63
2021/05/31 03:09:13;;;;;;;0.85;0.85;;;19.30;45.80;;;22.82;31.47;102312.97;5133239;28;20043;-63
2021/05/31 03:11:38;;;;;;;0.75;0.75;;;19.30;45.80;;;22.86;31.56;102315.44;5116545;28;20047;-63
2021/05/31 03:14:04;;;;;;;0.88;0.88;;;19.40;45.80;;;22.94;31.48;102317.75;5133331;28;20042;-63
2021/05/31 03:16:30;;;;;;;0.90;0.90;;;19.40;45.60;;;22.97;31.34;102309.59;5116813;28;20095;-63
2021/05/31 03:18:56;;;;;;;0.75;0.75;;;19.50;45.40;;;23.06;31.25;102316.28;5116241;28;20043;-63
2021/05/31 03:21:21;;;;;;;1.20;1.10;;;19.60;45.30;;;23.13;31.24;102312.41;5116668;28;20054;-63
2021/05/31 03:23:47;;;;;;;0.75;0.75;;;19.60;45.20;;;23.19;31.16;102320.13;5116194;28;20043;-63
2021/05/31 03:26:13;;;;;;;0.80;0.80;;;19.70;45.10;;;23.25;31.05;102321.63;5116372;28;20051;-63
2021/05/31 03:28:39;;;;;;;0.90;0.90;;;19.80;45.00;;;23.32;30.97;102317.72;5134943;27;20042;-63
2021/05/31 03:31:04;;;;;;;0.88;0.88;;;19.80;44.90;;;23.40;30.87;102318.19;5115985;28;20091;-64
2021/05/31 03:33:30;;;;;;;0.90;0.90;;;19.90;44.80;;;23.44;30.81;102321.63;5133086;28;20051;-63
2021/05/31 03:35:56;;;;;;;0.80;0.80;;;19.90;44.70;;;23.51;30.85;102320.34;5133549;28;20043;-63
2021/05/31 03:38:22;;;;;;;0.82;0.82;;;20.00;44.60;;;23.53;30.71;102314.94;5115672;28;20047;-63
2021/05/31 03:40:47;;;;;;;0.70;0.70;;;20.00;44.50;;;23.63;30.74;102324.22;5115703;28;20043;-63
2021/05/31 03:43:13;;;;;;;0.90;0.90;;;20.10;44.40;;;23.66;30.55;102316.91;5098801;28;20047;-63
2021/05/31 03:45:39;;;;;;;0.90;0.90;;;20.20;44.30;;;23.74;30.42;102324.53;5133114;28;20155;-63
2021/05/31 03:48:05;;;;;;;0.80;0.80;;;20.20;44.20;;;23.81;30.34;102320.63;5116348;28;20054;-64
2021/05/31 03:50:31;;;;;;;0.90;0.90;;;20.30;44.00;;;23.92;30.27;102322.75;5115989;28;20055;-63
2021/05/31 03:52:57;;;;;;;0.68;0.68;;;20.40;43.80;;;23.99;30.20;102323.28;5115873;28;20039;-64
2021/05/31 03:55:23;;;;;;;0.90;0.90;;;20.50;43.70;;;24.10;30.17;102325.44;5115571;28;20088;-64
2021/05/31 03:57:49;;;;;;;0.85;0.85;;;20.60;43.50;;;24.15;30.01;102326.91;5115588;28;20039;-63
2021/05/31 04:00:15;;;;;;;0.90;0.90;;;20.70;43.40;;;24.24;29.87;102322.91;5116074;28;20471;-63
2021/05/31 04:02:43;;;;;;;0.85;0.85;;;20.80;43.20;;;24.30;29.86;102325.22;5132634;28;20051;-63
2021/05/31 04:05:12;;;;;;;0.80;0.80;;;20.80;43.10;;;24.39;29.64;102326.53;5133016;28;20051;-63
2021/05/31 04:13:06;;;;;;;0.60;0.60;;;20.90;42.90;;;24.54;29.47;102311.50;5132199;27;20051;-63
2021/05/31 04:15:32;;;;;;;1.33;0.88;;;21.00;42.90;;;24.57;29.59;102311.34;5115228;28;20043;-63
2021/05/31 04:17:58;;;;;;;0.93;0.93;;;21.00;42.90;;;24.62;29.31;102319.13;5132909;28;20493;-63
2021/05/31 04:20:24;;;;;;;0.82;0.82;;;21.00;42.80;;;24.66;29.42;102315.34;5132446;28;20047;-64
2021/05/31 04:22:50;;;;;;;0.80;0.80;;;21.00;42.80;;;24.66;29.25;102313.53;5098261;28;20128;-63
2021/05/31 04:25:15;;;;;;;0.90;0.90;;;21.00;42.80;;;24.73;29.42;102320.28;5115107;28;20050;-63
2021/05/31 04:27:41;;;;;;;0.80;0.80;;;21.10;42.80;;;24.76;29.24;102311.22;5132199;28;20051;-62
2021/05/31 04:30:08;;;;;;;1.20;0.93;;;21.10;42.80;;;24.79;29.23;102311.03;5098671;28;20069;-63
2021/05/31 04:32:34;;;;;;;2.38;0.90;;;21.10;42.70;;;24.82;29.20;102312.69;5132250;28;20047;-63
2021/05/31 04:35:00;;;;;;;0.80;0.80;;;21.10;42.70;;;24.85;29.08;102300.00;5115058;28;20043;-63
2021/05/31 04:37:26;;;;;;;0.85;0.77;;;21.20;42.70;;;24.88;29.06;102298.97;5115183;28;20156;-63
2021/05/31 04:39:55;;;;;;;0.90;0.90;;;21.20;42.70;;;24.90;29.06;102297.94;5115085;28;20096;-63
2021/05/31 04:42:21;;;;;;;0.73;0.73;;;21.20;42.70;;;24.93;29.06;102295.09;5115312;28;20058;-63
2021/05/31 04:44:47;;;;;;;0.70;0.70;;;21.20;42.60;;;24.98;28.79;102297.50;5115508;28;20047;-63
2021/05/31 04:47:12;;;;;;;0.80;0.80;;;21.20;42.60;;;25.00;29.00;102298.28;5097837;28;20102;-63
2021/05/31 04:49:38;;;;;;;0.80;0.80;;;21.30;42.70;;;25.04;28.85;102296.28;5132000;28;20078;-63
2021/05/31 04:52:04;;;;;;;0.82;0.82;;;21.30;42.60;;;25.05;28.98;102298.03;5080958;28;20043;-62
2021/05/31 04:54:31;;;;;;;0.65;0.65;;;21.30;42.60;;;25.06;28.97;102295.25;5131993;28;20174;-63
2021/05/31 04:56:57;;;;;;;0.80;0.80;;;21.30;42.50;;;25.11;28.74;102308.41;5114870;28;20043;-63
2021/05/31 04:59:22;;;;;;;0.88;0.88;;;21.30;42.50;;;25.14;28.81;102298.38;5114756;28;20550;-63
2021/05/31 05:01:49;;;;;;;0.80;0.80;;;21.40;42.50;;;25.18;28.72;102304.41;5115054;28;20047;-63
2021/05/31 05:04:14;;;;;;;0.80;0.80;;;21.40;42.50;;;25.17;28.91;102308.03;5131786;27;20062;-63
2021/05/31 05:06:41;;;;;;;0.90;0.90;;;21.40;42.40;;;25.24;28.77;102305.84;5134772;28;20491;-63
2021/05/31 05:09:07;;;;;;;0.73;0.73;;;21.40;42.50;;;25.22;28.58;102300.59;5118231;28;20077;-63
2021/05/31 05:11:33;;;;;;;0.80;0.80;;;21.40;42.40;;;25.26;28.58;102304.88;5118215;28;20043;-63
2021/05/31 05:14:00;;;;;;;0.88;0.88;;;21.40;42.40;;;25.28;28.71;102294.06;5135412;28;20058;-63
2021/05/31 05:16:26;;;;;;;0.70;0.70;;;21.50;42.40;;;25.31;28.47;102300.09;5101556;28;20046;-63
2021/05/31 05:18:52;;;;;;;1.08;0.98;;;21.50;42.40;;;25.33;28.60;102295.50;5118135;28;20047;-63
2021/05/31 05:21:18;;;;;;;0.52;0.52;;;21.50;42.30;;;25.36;28.75;102301.63;5118469;28;20039;-63
2021/05/31 05:23:47;;;;;;;0.70;0.70;;;21.50;42.30;;;25.30;28.63;102286.81;5135551;28;20100;-63
2021/05/31 05:26:14;;;;;;;0.70;0.70;;;21.60;42.30;;;25.38;28.47;102294.41;5118054;28;20058;-63
2021/05/31 05:28:39;;;;;;;0.70;0.70;;;21.50;42.30;;;25.38;28.66;102295.25;5136308;27;21126;-63
2021/05/31 05:31:10;;;;;;;0.70;0.70;;;21.60;42.30;;;25.40;28.39;102295.16;5135325;28;20126;-62
2021/05/31 05:33:38;;;;;;;0.88;0.88;;;21.60;42.30;;;25.40;28.56;102292.50;5136457;27;20043;-62
2021/05/31 05:36:32;;;;;;;0.70;0.70;;;21.60;42.20;;;25.41;28.47;102286.16;5134985;28;20035;-62
2021/05/31 05:41:52;;;;;;;0.80;0.80;;;21.70;42.20;;;25.50;28.40;102293.66;5134932;28;20054;-62
2021/05/31 05:44:40;;;;;;;;;;;21.70;42.10;;;25.63;28.37;102297.34;5118604;28;20078;-62
2021/05/31 05:49:43;;;;;;;0.70;0.70;;;21.80;42.00;;;25.60;28.42;102304.72;5136014;28;20137;-62
2021/05/31 05:52:11;;;;;;;0.70;0.70;;;21.80;41.90;;;25.62;28.24;102298.28;5135038;28;20055;-62
2021/05/31 05:54:37;;;;;;;0.68;0.68;;;21.90;41.90;;;25.61;28.37;102290.34;5117465;28;20180;-62
2021/05/31 05:57:03;;;;;;;0.60;0.60;;;21.90;41.80;;;25.69;28.18;102299.66;5134304;28;20153;-62
2021/05/31 05:59:30;;;;;;;0.75;0.75;;;22.00;41.70;;;25.73;28.20;102294.09;5117598;28;20544;-62
2021/05/31 06:01:55;;;;;;;0.60;0.60;;;22.00;41.70;;;25.74;28.21;102291.34;5100703;28;20047;-62
2021/05/31 06:04:21;;;;;;;0.70;0.70;;;22.00;41.60;;;25.81;28.12;102302.53;5134462;28;20043;-62
2021/05/31 06:06:47;;;;;;;0.80;0.80;;;22.10;41.50;;;25.82;28.07;102302.47;5136150;27;20058;-62
2021/05/31 06:09:15;;;;;;;0.70;0.70;;;22.10;41.40;;;25.86;28.08;102295.09;5117640;28;20043;-62
2021/05/31 06:11:41;;;;;;;0.60;0.60;;;22.10;41.30;;;25.92;28.04;102301.91;5117334;28;20051;-62
2021/05/31 06:14:09;;;;;;;0.70;0.70;;;22.20;41.30;;;25.97;27.95;102306.06;5117093;28;20046;-62
2021/05/31 06:16:35;;;;;;;0.70;0.70;;;22.20;41.20;;;26.03;27.78;102307.53;5134905;27;20171;-62
2021/05/31 06:19:02;;;;;;;0.80;0.80;;;22.30;41.20;;;26.04;27.88;102296.72;5134124;28;20047;-62
2021/05/31 06:21:28;;;;;;;0.60;0.60;;;22.30;41.00;;;26.09;27.66;102301.78;5117221;28;20505;-61
2021/05/31 06:23:54;;;;;;;0.80;0.80;;;22.40;41.00;;;26.16;27.66;102303.13;5117428;28;20159;-61
2021/05/31 06:26:21;;;;;;;0.70;0.70;;;22.40;40.90;;;26.20;27.86;102304.66;5117025;28;20482;-62
2021/05/31 06:28:47;;;;;;;0.70;0.70;;;22.50;40.90;;;26.23;27.78;102303.63;5117479;28;20067;-61
2021/05/31 06:31:14;;;;;;;0.80;0.80;;;22.50;40.80;;;26.29;27.53;102303.22;5116986;28;20184;-62
2021/05/31 06:33:39;;;;;;;0.80;0.80;;;22.60;40.70;;;26.32;27.59;102297.66;5116882;28;20077;-62
2021/05/31 06:36:08;;;;;;;0.80;0.80;;;22.60;40.60;;;26.36;27.43;102298.34;5134463;28;20127;-62
2021/05/31 06:38:34;;;;;;;0.60;0.60;;;22.70;40.50;;;26.43;27.40;102300.56;5117169;28;20039;-61
2021/05/31 06:41:00;;;;;;;0.70;0.70;;;22.70;40.40;;;26.44;27.35;102296.88;5116739;28;20482;-61
2021/05/31 06:43:26;;;;;;;0.68;0.68;;;22.70;40.40;;;26.48;27.26;102294.91;5133889;28;20602;-61
2021/05/31 06:45:52;;;;;;;0.80;0.80;;;22.80;40.30;;;26.56;27.36;102297.09;5100033;28;20053;-62
2021/05/31 06:48:17;;;;;;;0.88;0.85;;;22.90;40.30;;;26.58;27.21;102301.41;5116765;28;20043;-62
2021/05/31 06:50:45;;;;;;;0.70;0.70;;;22.90;40.20;;;26.66;27.17;102308.97;5100165;28;20449;-62
2021/05/31 06:53:11;;;;;;;0.60;0.60;;;23.00;40.10;;;26.69;27.05;102308.78;5116679;28;20153;-62
2021/05/31 06:55:36;;;;;;;0.80;0.70;;;23.00;40.00;;;26.73;27.15;102304.97;5116899;28;20129;-61
2021/05/31 06:58:03;;;;;;;0.60;0.60;;;23.10;40.00;;;26.80;27.01;102306.28;5116912;28;20039;-61
2021/05/31 07:00:30;;;;;;;0.60;0.60;;;23.10;39.80;;;26.87;26.93;102309.44;5133992;28;20043;-62
2021/05/31 07:02:56;;;;;;;0.77;0.77;;;23.10;39.80;;;26.87;26.97;102295.16;5116463;28;20043;-62
2021/05/31 07:05:23;;;;;;;0.70;0.70;;;23.20;39.70;;;26.95;26.86;102300.91;5133369;28;20398;-63
2021/05/31 07:07:51;;;;;;;0.88;0.88;;;23.20;39.60;;;26.98;26.77;102306.03;5134930;27;20125;-62
2021/05/31 07:10:17;;;;;;;0.60;0.60;;;23.30;39.50;;;27.06;26.75;102302.88;5134769;27;20127;-62
2021/05/31 07:12:45;;;;;;;0.77;0.77;;;23.30;39.40;;;27.12;26.58;102308.69;5133342;28;20043;-62
2021/05/31 07:15:12;;;;;;;0.90;0.90;;;23.40;39.40;;;27.14;26.48;102308.59;5134374;27;20043;-62
2021/05/31 07:17:40;;;;;;;0.68;0.68;;;23.40;39.90;;;27.17;26.42;102303.88;5116689;28;20429;-62
2021/05/31 07:20:10;;;;;;;0.70;0.70;;;23.50;39.20;;;27.27;26.53;102311.34;5133374;28;20096;-62
2021/05/31 07:22:37;;;;;;;0.52;0.52;;;23.50;39.20;;;27.33;26.63;102300.22;5116532;28;20126;-62
2021/05/31 07:25:05;;;;;;;0.75;0.75;;;23.50;39.10;;;27.32;26.48;102303.88;5097284;28;20138;-62
2021/05/31 07:27:31;;;;;;;0.73;0.73;;;23.60;39.00;;;27.40;26.17;102301.53;5134023;27;20479;-62
2021/05/31 07:29:56;;;;;;;0.70;0.70;;;23.60;38.90;;;27.41;26.29;102300.56;5115758;28;20050;-62
2021/05/31 07:32:23;;;;;;;0.70;0.70;;;23.70;38.90;;;27.47;26.34;102299.31;5133442;28;20051;-63
2021/05/31 07:34:49;;;;;;;0.80;0.80;;;23.70;38.80;;;27.45;26.24;102288.66;5115900;28;20050;-62
2021/05/31 07:37:14;;;;;;;0.80;0.80;;;23.80;38.80;;;27.53;26.28;102296.19;5116201;28;20055;-62
2021/05/31 07:39:40;;;;;;;0.68;0.68;;;23.80;39.20;;;27.53;26.20;102288.13;5133426;28;20047;-62
2021/05/31 07:42:06;;;;;;;0.50;0.50;;;23.80;38.60;;;27.54;26.04;102288.03;5132854;28;20064;-62
2021/05/31 07:44:32;;;;;;;0.80;0.70;;;23.80;38.40;;;27.61;25.88;102290.31;5115514;28;20796;-62
2021/05/31 07:46:58;;;;;;;0.80;0.80;;;23.90;38.40;;;27.63;25.87;102291.94;5133118;28;20097;-63
2021/05/31 07:49:24;;;;;;;0.50;0.50;;;23.90;38.30;;;27.62;25.89;102284.81;5132650;28;20069;-62
2021/05/31 07:51:52;;;;;;;0.60;0.60;;;24.00;38.80;;;27.67;26.01;102289.91;5115640;28;20077;-62
2021/05/31 07:54:20;;;;;;;0.60;0.60;;;23.90;38.20;;;27.67;25.74;102282.69;5132728;28;20043;-63
2021/05/31 07:56:46;;;;;;;0.80;0.80;;;24.00;38.20;;;27.67;25.72;102282.69;5098934;28;20556;-63
2021/05/31 07:59:12;;;;;;;0.77;0.77;;;24.00;38.10;;;27.72;25.96;102282.38;5133295;28;20042;-62
2021/05/31 08:01:38;;;;;;;0.88;0.88;;;24.10;38.20;;;27.73;25.79;102287.66;5115493;28;20053;-63
2021/05/31 08:04:06;;;;;;;0.93;0.93;;;24.10;38.10;;;27.71;25.62;102284.19;5115837;28;20142;-63
2021/05/31 08:06:34;;;;;;;1.00;0.90;;;24.10;38.10;;;27.79;25.61;102282.81;5133970;27;20409;-62
2021/05/31 08:09:00;;;;;;;0.75;0.75;;;24.10;38.00;;;27.78;25.72;102276.56;5132635;28;20039;-62
2021/05/31 08:11:27;;;;;;;0.60;0.60;;;24.10;37.90;;;27.80;25.70;102274.66;5115737;28;20086;-62
2021/05/31 08:13:53;;;;;;;0.90;0.80;;;24.10;37.90;;;27.82;25.80;102282.59;5098537;28;20047;-62
2021/05/31 08:16:19;;;;;;;0.70;0.70;;;24.10;37.90;;;27.79;25.60;102275.59;5132179;28;20046;-61
2021/05/31 08:18:46;;;;;;;0.82;0.82;;;24.10;37.90;;;27.79;25.50;102282.81;5132525;28;20043;-62
2021/05/31 08:21:12;;;;;;;0.70;0.70;;;24.10;37.80;;;27.82;25.61;102280.78;5115496;28;20060;-62
2021/05/31 08:23:39;;;;;;;0.80;0.80;;;24.10;37.80;;;27.81;25.52;102279.03;5115165;28;20562;-62
2021/05/31 08:26:05;;;;;;;0.75;0.75;;;24.10;37.80;;;27.82;25.61;102283.44;5132439;28;20100;-62
2021/05/31 08:28:31;;;;;;;0.80;0.80;;;24.10;37.80;;;27.79;25.69;102278.28;5132254;28;20043;-62
2021/05/31 08:30:57;;;;;;;0.90;0.90;;;24.10;37.80;;;27.80;25.46;102282.72;5115193;28;20492;-62
2021/05/31 08:33:23;;;;;;;0.70;0.70;;;24.10;37.80;;;27.81;25.43;102287.09;5133613;27;20379;-62
2021/05/31 08:35:49;;;;;;;0.80;0.80;;;24.10;37.80;;;27.79;25.53;102280.97;5132668;28;20043;-62
2021/05/31 08:38:15;;;;;;;0.82;0.80;;;24.10;37.80;;;27.79;25.54;102280.13;5115073;28;20499;-62
2021/05/31 08:40:41;;;;;;;0.80;0.80;;;24.10;37.90;;;27.77;25.57;102280.22;5114000;28;20043;-62
2021/05/31 08:43:07;;;;;;;0.60;0.60;;;24.10;37.80;;;27.78;25.41;102275.69;5132075;28;20130;-62
2021/05/31 08:45:37;;;;;;;1.00;0.90;;;24.10;37.80;;;27.74;25.74;102272.38;5132068;28;20047;-62
2021/05/31 08:48:03;;;;;;;0.70;0.70;;;24.10;37.80;;;27.70;25.48;102269.03;5115487;28;20478;-62
2021/05/31 08:50:33;;;;;;;0.65;0.65;;;24.10;37.80;;;27.69;25.46;102264.63;5132005;28;20048;-62
2021/05/31 08:52:59;;;;;;;0.90;0.90;;;24.00;37.80;;;27.71;25.58;102275.25;5132298;27;20441;-62
2021/05/31 08:55:28;;;;;;;0.80;0.80;;;24.00;37.80;;;27.69;25.48;102274.50;5114674;28;20039;-62
2021/05/31 08:57:56;;;;;;;0.70;0.70;;;24.10;37.90;;;27.66;25.91;102266.66;5132279;28;20051;-62
2021/05/31 09:00:27;;;;;;;0.57;0.57;;;24.00;37.90;;;27.64;25.85;102265.91;5115037;28;20051;-62
2021/05/31 09:02:58;;;;;;;0.70;0.70;;;24.00;37.90;;;27.61;25.82;102266.13;5132473;28;20386;-62
2021/05/31 09:05:42;;;;;;;0.80;0.80;;;24.00;38.50;;;27.58;25.78;102261.81;5114717;28;20467;-62
2021/05/31 09:08:10;;;;;;;0.63;0.63;;;24.00;38.00;;;27.58;25.63;102253.75;5132397;28;20062;-62
2021/05/31 09:10:44;;;;;;;0.73;0.73;;;23.90;37.90;;;27.53;25.70;102258.56;5114639;28;20066;-63
2021/05/31 09:13:31;;;;;;;0.85;0.70;;;23.90;38.00;;;27.51;25.86;102260.50;5098200;28;20051;-62
2021/05/31 09:16:10;;;;;;;0.70;0.70;;;23.90;38.00;;;27.49;25.79;102252.56;5129885;28;20051;-62
2021/05/31 09:18:38;;;;;;;0.63;0.63;;;23.90;38.00;;;27.43;25.78;102247.63;5097953;28;20051;-62
2021/05/31 09:21:27;;;;;;;0.52;0.52;;;23.90;38.10;;;27.45;25.93;102263.59;5132960;27;20043;-62
2021/05/31 09:24:03;;;;;;;0.85;0.85;;;23.90;38.00;;;27.41;25.88;102260.28;5133505;27;20054;-62
2021/05/31 09:26:30;;;;;;;0.90;0.68;;;23.90;38.10;;;27.39;25.89;102251.47;5131604;28;20483;-62
2021/05/31 09:29:04;;;;;;;0.70;0.70;;;23.90;38.10;;;27.40;25.89;102252.31;5131520;28;20070;-62
2021/05/31 09:31:31;;;;;;;0.73;0.73;;;23.90;38.10;;;27.40;25.98;102255.00;5131900;27;20175;-62
2021/05/31 09:34:11;;;;;;;0.90;0.90;;;23.90;38.10;;;27.38;26.12;102259.63;5114233;28;20406;-62
2021/05/31 09:36:50;;;;;;;1.13;0.90;;;23.90;38.10;;;27.37;25.92;102248.03;5114592;28;20151;-62
2021/05/31 09:39:16;;;;;;;0.80;0.80;;;23.80;38.00;;;27.36;25.94;102254.34;5114136;28;20059;-62
2021/05/31 09:41:43;;;;;;;0.73;0.73;;;23.80;38.10;;;27.33;25.94;102246.50;5080478;28;20046;-62
2021/05/31 09:44:10;;;;;;;0.77;0.77;;;23.80;38.00;;;27.36;25.93;102248.97;5114351;28;20044;-62
2021/05/31 09:46:41;;;;;;;0.70;0.70;;;23.80;38.10;;;27.34;25.82;102253.59;5130979;27;20051;-62
2021/05/31 09:49:20;;;;;;;0.80;0.80;;;23.80;38.10;;;27.34;25.92;102243.72;5114540;28;20043;-62
2021/05/31 09:52:03;;;;;;;0.90;0.90;;;23.80;38.10;;;27.31;26.05;102243.91;5133246;27;20436;-62
2021/05/31 09:54:39;;;;;;;1.20;1.10;;;23.90;38.10;;;27.29;26.27;102250.38;5117465;28;20486;-62
2021/05/31 09:57:19;;;;;;;0.68;0.68;;;23.80;38.10;;;27.28;25.95;102227.13;5117060;28;20051;-62
2021/05/31 10:00:14;;;;;;;0.80;0.80;;;23.80;38.10;;;27.30;26.12;102230.63;5135045;27;20082;-62
2021/05/31 10:03:08;;;;;;;1.00;1.00;;;23.80;38.10;;;27.28;26.16;102222.63;5134593;28;20135;-62
2021/05/31 10:05:43;;;;;;;0.80;0.80;;;23.80;38.10;;;27.32;26.03;102229.53;5134833;28;20133;-62
2021/05/31 10:10:56;;;;;;;0.70;0.70;;;23.80;38.10;;;27.31;26.13;102221.56;5134941;28;20507;-62
2021/05/31 10:13:23;;;;;;;0.70;0.70;;;23.80;38.20;;;27.26;25.99;102216.47;5134357;28;20051;-62
2021/05/31 10:15:50;;;;;;;0.82;0.82;;;23.80;38.10;;;27.29;25.95;102213.63;5100091;28;20047;-62
2021/05/31 10:18:18;;;;;;;0.70;0.70;;;23.80;38.10;;;27.26;25.99;102208.41;5134240;28;20092;-62
2021/05/31 10:20:45;;;;;;;0.70;0.70;;;23.80;38.00;;;27.30;25.88;102211.81;5135631;27;20402;-62
2021/05/31 10:23:12;;;;;;;0.90;0.90;;;23.80;38.10;;;27.28;25.95;102211.00;5116964;28;20051;-63
2021/05/31 10:25:44;;;;;;;0.75;0.75;;;23.80;38.10;;;27.25;25.95;102206.72;5134286;28;20497;-62
2021/05/31 10:28:11;;;;;;;0.80;0.80;;;23.80;38.10;;;27.30;25.97;102222.56;5134653;28;20047;-62
2021/05/31 10:30:48;;;;;;;0.80;0.80;;;23.80;39.00;;;27.25;26.07;102211.22;5134550;28;20050;-63
2021/05/31 10:33:19;;;;;;;1.40;0.95;;;23.80;38.10;;;27.28;25.98;102213.69;5117634;28;20073;-63